createdAt,value
2022-08-24T00:00:17.920Z,77.57
2022-08-24T00:03:03.725Z,77.89
2022-08-24T00:05:49.859Z,77.61
2022-08-24T00:08:36.923Z,77.43
2022-08-24T00:11:22.966Z,77.34
2022-08-24T00:14:08.893Z,77.54
2022-08-24T00:16:54.577Z,77.29
2022-08-24T00:19:40.335Z,77.62
2022-08-24T00:22:25.842Z,77.74
2022-08-24T00:25:13.600Z,78.29
2022-08-24T00:27:59.406Z,78.33
2022-08-24T00:30:45.168Z,78.56
2022-08-24T00:33:30.852Z,78.26
2022-08-24T00:36:17.731Z,78.21
2022-08-24T00:39:04.527Z,78.27
2022-08-24T00:41:51.991Z,78.33
2022-08-24T00:44:37.725Z,78.13
2022-08-24T00:47:33.181Z,77.92
2022-08-24T00:50:36.922Z,78.11
2022-08-24T00:53:32.358Z,78.07
2022-08-24T00:56:24.843Z,78.00
2022-08-24T00:59:17.763Z,77.53
2022-08-24T01:02:15.601Z,77.57
2022-08-24T01:05:06.896Z,77.50
2022-08-24T01:07:52.486Z,77.38
2022-08-24T01:10:55.072Z,77.37
2022-08-24T01:13:44.385Z,77.66
2022-08-24T01:16:49.256Z,77.61
2022-08-24T01:19:43.870Z,77.38
2022-08-24T01:22:47.717Z,77.36
2022-08-24T01:25:35.360Z,77.02
2022-08-24T01:28:27.425Z,77.03
2022-08-24T01:31:13.758Z,77.17
2022-08-24T01:33:59.429Z,76.76
2022-08-24T01:36:56.808Z,76.80
2022-08-24T01:39:49.101Z,76.85
2022-08-24T01:42:35.079Z,76.96
2022-08-24T01:45:21.209Z,77.30
2022-08-24T01:48:06.389Z,77.31
2022-08-24T01:50:52.702Z,77.49
2022-08-24T01:53:40.501Z,76.98
2022-08-24T01:56:25.966Z,77.30
2022-08-24T01:59:16.554Z,77.09
2022-08-24T02:02:11.949Z,76.95
2022-08-24T02:04:58.358Z,77.23
2022-08-24T02:07:44.352Z,77.35
2022-08-24T02:10:30.975Z,77.59
2022-08-24T02:13:16.559Z,77.63
2022-08-24T02:16:02.750Z,77.52
2022-08-24T02:18:51.298Z,77.52
2022-08-24T02:21:36.660Z,77.42
2022-08-24T02:24:22.788Z,77.16
2022-08-24T02:27:08.848Z,76.86
2022-08-24T02:29:54.675Z,76.82
2022-08-24T02:32:40.650Z,76.78
2022-08-24T02:35:30.019Z,76.74
2022-08-24T02:38:16.424Z,76.84
2022-08-24T02:41:02.167Z,76.60
2022-08-24T02:43:49.496Z,76.46
2022-08-24T02:46:35.119Z,76.54
2022-08-24T02:49:23.090Z,76.45
2022-08-24T02:52:09.416Z,76.35
2022-08-24T02:54:56.119Z,76.52
2022-08-24T02:57:42.325Z,76.47
2022-08-24T03:00:28.071Z,76.96
2022-08-24T03:03:15.133Z,76.89
2022-08-24T03:06:00.881Z,77.37
2022-08-24T03:08:51.278Z,77.54
2022-08-24T03:11:45.440Z,77.67
2022-08-24T03:14:32.118Z,78.02
2022-08-24T03:17:17.986Z,78.24
2022-08-24T03:20:07.061Z,78.22
2022-08-24T03:22:53.411Z,78.23
2022-08-24T03:25:38.892Z,77.92
2022-08-24T03:28:25.440Z,78.05
2022-08-24T03:31:11.580Z,78.15
2022-08-24T03:33:58.729Z,78.11
2022-08-24T03:36:47.488Z,78.17
2022-08-24T03:39:34.853Z,78.30
2022-08-24T03:42:20.989Z,78.44
2022-08-24T03:45:08.318Z,78.71
2022-08-24T03:47:55.794Z,78.64
2022-08-24T03:50:45.304Z,78.51
2022-08-24T03:53:32.251Z,78.80
2022-08-24T03:56:20.079Z,79.02
2022-08-24T03:59:07.962Z,79.36
2022-08-24T04:01:58.258Z,79.71
2022-08-24T04:04:45.159Z,79.66
2022-08-24T04:07:31.409Z,79.72
2022-08-24T04:10:17.127Z,79.75
2022-08-24T04:13:02.665Z,79.74
2022-08-24T04:15:50.303Z,79.67
2022-08-24T04:18:36.152Z,80.04
2022-08-24T04:21:28.471Z,80.16
2022-08-24T04:24:14.093Z,80.11
2022-08-24T04:26:59.463Z,80.27
2022-08-24T04:29:45.295Z,79.83
2022-08-24T04:32:35.243Z,80.15
2022-08-24T04:35:20.841Z,80.51
2022-08-24T04:38:07.740Z,80.50
2022-08-24T04:40:53.924Z,80.75
2022-08-24T04:43:45.292Z,80.72
2022-08-24T04:46:32.675Z,80.96
2022-08-24T04:49:18.855Z,80.91
2022-08-24T04:52:07.051Z,80.94
2022-08-24T04:54:53.516Z,80.95
2022-08-24T04:57:41.909Z,80.62
2022-08-24T05:00:27.305Z,80.22
2022-08-24T05:03:14.283Z,80.28
2022-08-24T05:05:59.579Z,80.26
2022-08-24T05:08:46.862Z,79.99
2022-08-24T05:11:35.257Z,79.41
2022-08-24T05:14:20.955Z,79.27
2022-08-24T05:17:09.345Z,78.20
2022-08-24T05:19:57.692Z,77.35
2022-08-24T05:22:43.423Z,76.14
2022-08-24T05:25:29.710Z,76.20
2022-08-24T05:28:15.200Z,75.60
2022-08-24T05:31:07.680Z,74.16
2022-08-24T05:33:53.835Z,73.39
2022-08-24T05:36:41.324Z,73.12
2022-08-24T05:39:31.613Z,71.71
2022-08-24T05:42:25.314Z,70.95
2022-08-24T05:45:12.730Z,71.30
2022-08-24T05:47:58.373Z,70.49
2022-08-24T05:51:19.609Z,69.98
2022-08-24T05:54:14.481Z,69.13
2022-08-24T05:57:21.142Z,69.01
2022-08-24T06:00:19.980Z,69.44
2022-08-24T06:03:09.114Z,69.93
2022-08-24T06:06:07.433Z,69.91
2022-08-24T06:08:56.906Z,69.92
2022-08-24T06:11:43.108Z,71.10
2022-08-24T06:14:29.831Z,70.79
2022-08-24T06:17:17.678Z,70.79
2022-08-24T06:20:04.343Z,69.64
2022-08-24T06:22:49.931Z,67.77
2022-08-24T06:25:58.749Z,67.28
2022-08-24T06:28:44.695Z,66.91
2022-08-24T06:31:39.372Z,66.10
2022-08-24T06:34:27.905Z,65.84
2022-08-24T06:37:13.428Z,64.50
2022-08-24T06:40:00.085Z,65.04
2022-08-24T06:42:47.197Z,64.71
2022-08-24T06:45:43.924Z,65.19
2022-08-24T06:48:32.601Z,65.57
2022-08-24T06:51:20.228Z,63.99
2022-08-24T06:54:06.220Z,64.43
2022-08-24T06:56:52.151Z,65.29
2022-08-24T06:59:38.179Z,63.01
2022-08-24T07:02:24.541Z,62.68
2022-08-24T07:05:11.411Z,62.36
2022-08-24T07:08:16.371Z,62.88
2022-08-24T07:11:04.215Z,61.63
2022-08-24T07:13:50.286Z,61.68
2022-08-24T07:16:36.237Z,61.83
2022-08-24T07:19:23.273Z,61.11
2022-08-24T07:22:09.477Z,61.65
2022-08-24T07:24:56.929Z,61.54
2022-08-24T07:27:42.975Z,60.58
2022-08-24T07:30:35.986Z,61.15
2022-08-24T07:33:22.492Z,61.02
2022-08-24T07:36:09.695Z,60.57
2022-08-24T07:38:57.586Z,60.40
2022-08-24T07:44:53.738Z,59.71
2022-08-24T07:47:49.520Z,59.65
2022-08-24T07:50:55.126Z,60.74
2022-08-24T07:53:53.403Z,58.77
2022-08-24T07:56:43.901Z,58.55
2022-08-24T07:59:29.538Z,57.93
2022-08-24T08:02:17.353Z,60.17
2022-08-24T08:05:07.513Z,58.45
2022-08-24T08:07:55.626Z,57.74
2022-08-24T08:10:41.725Z,56.76
2022-08-24T08:13:27.252Z,54.88
2022-08-24T08:16:12.792Z,55.85
2022-08-24T08:19:13.240Z,56.16
2022-08-24T08:22:20.352Z,55.35
2022-08-24T08:25:26.040Z,55.46
2022-08-24T08:28:25.409Z,54.67
2022-08-24T08:31:12.335Z,55.18
2022-08-24T08:33:58.266Z,54.04
2022-08-24T08:36:45.615Z,53.93
2022-08-24T08:39:32.838Z,53.95
2022-08-24T08:42:28.787Z,53.16
2022-08-24T08:45:35.531Z,55.15
2022-08-24T08:49:02.873Z,53.96
2022-08-24T08:52:03.785Z,53.57
2022-08-24T08:55:29.638Z,53.93
2022-08-24T08:58:57.609Z,55.91
2022-08-24T09:02:20.903Z,57.39
2022-08-24T09:05:43.208Z,57.94
2022-08-24T09:08:44.034Z,58.79
2022-08-24T09:12:10.753Z,59.54
2022-08-24T09:15:29.336Z,58.45
2022-08-24T09:18:46.044Z,56.86
2022-08-24T09:21:44.582Z,55.08
2022-08-24T09:24:36.034Z,55.68
2022-08-24T09:27:46.276Z,53.88
2022-08-24T09:31:03.820Z,52.29
2022-08-24T09:34:20.063Z,53.11
2022-08-24T09:37:43.565Z,53.66
2022-08-24T09:40:54.526Z,53.58
2022-08-24T09:44:10.273Z,54.10
2022-08-24T09:46:59.225Z,53.31
2022-08-24T09:50:22.011Z,52.86
2022-08-24T09:53:47.321Z,53.69
2022-08-24T09:57:12.547Z,52.06
2022-08-24T10:00:15.295Z,53.70
2022-08-24T10:03:37.681Z,52.97
2022-08-24T10:07:04.621Z,52.51
2022-08-24T10:10:08.172Z,52.38
2022-08-24T10:13:12.943Z,53.80
2022-08-24T10:16:20.920Z,54.40
2022-08-24T10:19:39.042Z,53.89
2022-08-24T10:22:40.138Z,52.62
2022-08-24T10:25:49.276Z,52.46
2022-08-24T10:29:07.326Z,54.32
2022-08-24T10:32:19.240Z,51.77
2022-08-24T10:35:20.172Z,50.88
2022-08-24T10:39:06.923Z,52.47
2022-08-24T10:41:58.846Z,52.71
2022-08-24T10:44:54.278Z,50.83
2022-08-24T10:48:04.585Z,51.96
2022-08-24T10:50:51.488Z,52.73
2022-08-24T10:53:37.872Z,50.64
2022-08-24T10:56:40.046Z,50.32
2022-08-24T10:59:49.390Z,51.30
2022-08-24T11:02:38.190Z,51.04
2022-08-24T11:05:35.871Z,50.68
2022-08-24T11:08:25.335Z,52.27
2022-08-24T11:11:22.616Z,52.46
2022-08-24T11:14:16.710Z,53.32
2022-08-24T11:17:30.110Z,50.93
2022-08-24T11:20:26.830Z,50.43
2022-08-24T11:23:19.134Z,49.93
2022-08-24T11:26:21.626Z,51.34
2022-08-24T11:29:07.168Z,50.03
2022-08-24T11:31:54.162Z,48.91
2022-08-24T11:34:46.846Z,48.16
2022-08-24T11:37:35.254Z,48.03
2022-08-24T11:40:26.673Z,50.20
2022-08-24T11:43:30.921Z,47.88
2022-08-24T11:46:22.633Z,48.20
2022-08-24T11:49:29.322Z,45.41
2022-08-24T11:52:27.478Z,40.84
2022-08-24T11:55:46.707Z,43.39
2022-08-24T11:58:33.274Z,43.87
2022-08-24T12:01:33.138Z,44.13
2022-08-24T12:04:24.684Z,43.33
2022-08-24T12:07:25.584Z,41.31
2022-08-24T12:10:35.997Z,40.84
2022-08-24T12:13:49.740Z,38.45
2022-08-24T12:17:03.164Z,37.35
2022-08-24T12:19:59.631Z,37.95
2022-08-24T12:22:45.525Z,38.30
2022-08-24T12:25:52.142Z,34.91
2022-08-24T12:28:51.218Z,35.22
2022-08-24T12:32:01.427Z,35.16
2022-08-24T12:35:00.944Z,36.50
2022-08-24T12:37:54.805Z,35.52
2022-08-24T12:41:20.068Z,33.97
2022-08-24T12:44:15.143Z,36.32
2022-08-24T12:47:00.814Z,35.54
2022-08-24T12:49:55.380Z,36.71
2022-08-24T12:53:08.983Z,34.12
2022-08-24T12:56:18.559Z,33.88
2022-08-24T12:59:25.476Z,34.88
2022-08-24T13:02:11.016Z,34.73
2022-08-24T13:05:09.475Z,34.42
2022-08-24T13:08:11.711Z,35.16
2022-08-24T13:11:06.582Z,34.54
2022-08-24T13:13:55.267Z,35.47
2022-08-24T13:16:51.378Z,34.55
2022-08-24T13:19:43.064Z,35.58
2022-08-24T13:22:46.614Z,35.92
2022-08-24T13:25:47.735Z,36.56
2022-08-24T13:28:45.697Z,36.26
2022-08-24T13:31:42.392Z,37.11
2022-08-24T13:34:46.580Z,36.40
2022-08-24T13:37:32.664Z,34.79
2022-08-24T13:40:26.480Z,34.03
2022-08-24T13:43:36.284Z,34.71
2022-08-24T13:46:58.845Z,34.71
2022-08-24T13:50:02.044Z,34.70
2022-08-24T13:53:06.560Z,35.97
2022-08-24T13:56:34.927Z,35.64
2022-08-24T13:59:55.522Z,34.61
2022-08-24T14:03:13.647Z,34.93
2022-08-24T14:06:21.679Z,35.93
2022-08-24T14:09:25.603Z,35.37
2022-08-24T14:12:26.244Z,36.31
2022-08-24T14:15:16.091Z,36.73
2022-08-24T14:18:14.890Z,36.21
2022-08-24T14:21:53.032Z,36.38
2022-08-24T14:24:49.027Z,36.79
2022-08-24T14:27:43.071Z,36.64
2022-08-24T14:30:28.727Z,35.92
2022-08-24T14:33:27.302Z,36.25
2022-08-24T14:36:21.227Z,36.31
2022-08-24T14:39:39.365Z,36.72
2022-08-24T14:42:37.501Z,37.22
2022-08-24T14:45:48.227Z,38.23
2022-08-24T14:48:54.937Z,37.38
2022-08-24T14:51:54.399Z,36.94
2022-08-24T14:55:15.911Z,36.08
2022-08-24T14:58:11.549Z,37.29
2022-08-24T15:01:25.109Z,36.87
2022-08-24T15:04:37.154Z,37.59
2022-08-24T15:07:27.747Z,38.14
2022-08-24T15:10:15.221Z,38.11
2022-08-24T15:13:06.040Z,38.48
2022-08-24T15:16:30.611Z,38.68
2022-08-24T15:19:30.099Z,38.87
2022-08-24T15:22:29.318Z,39.78
2022-08-24T15:25:32.133Z,39.35
2022-08-24T15:28:25.855Z,40.00
2022-08-24T15:31:19.005Z,39.49
2022-08-24T15:34:05.431Z,39.52
2022-08-24T15:37:01.700Z,39.14
2022-08-24T15:39:47.219Z,39.48
2022-08-24T15:42:36.404Z,39.61
2022-08-24T15:45:23.552Z,40.10
2022-08-24T15:48:12.362Z,39.95
2022-08-24T15:50:59.493Z,39.96
2022-08-24T15:53:45.395Z,40.15
2022-08-24T15:56:40.945Z,39.89
2022-08-24T15:59:28.869Z,40.16
2022-08-24T16:02:26.813Z,40.10
2022-08-24T16:05:25.441Z,40.33
2022-08-24T16:08:14.016Z,40.50
2022-08-24T16:11:20.322Z,40.80
2022-08-24T16:14:28.584Z,41.03
2022-08-24T16:17:34.076Z,41.99
2022-08-24T16:20:22.841Z,42.54
2022-08-24T16:23:13.001Z,42.82
2022-08-24T16:26:38.992Z,43.46
2022-08-24T16:29:38.318Z,43.37
2022-08-24T16:32:40.120Z,43.48
2022-08-24T16:35:37.633Z,43.74
2022-08-24T16:38:23.134Z,43.95
2022-08-24T16:41:11.450Z,44.74
2022-08-24T16:43:57.528Z,46.80
2022-08-24T16:46:43.358Z,48.69
2022-08-24T16:49:33.909Z,49.73
2022-08-24T16:52:20.683Z,50.67
2022-08-24T16:55:07.169Z,51.26
2022-08-24T16:57:52.768Z,51.69
2022-08-24T17:00:38.440Z,52.23
2022-08-24T17:03:24.073Z,53.01
2022-08-24T17:06:12.646Z,53.42
2022-08-24T17:08:59.427Z,54.08
2022-08-24T17:11:47.042Z,54.85
2022-08-24T17:14:32.865Z,55.57
2022-08-24T17:17:21.629Z,56.12
2022-08-24T17:20:11.157Z,56.73
2022-08-24T17:22:57.750Z,57.76
2022-08-24T17:25:44.146Z,58.07
2022-08-24T17:28:30.195Z,58.52
2022-08-24T17:31:16.014Z,58.71
2022-08-24T17:34:01.924Z,58.74
2022-08-24T17:36:50.547Z,59.41
2022-08-24T17:39:36.506Z,59.69
2022-08-24T17:42:49.126Z,60.83
2022-08-24T17:45:27.997Z,60.86
2022-08-24T17:48:20.785Z,60.85
2022-08-24T17:51:06.482Z,61.59
2022-08-24T17:53:52.137Z,62.54
2022-08-24T17:56:41.132Z,62.57
2022-08-24T17:59:32.564Z,62.98
2022-08-24T18:02:18.306Z,63.65
2022-08-24T18:05:03.931Z,63.55
2022-08-24T18:07:54.454Z,64.02
2022-08-24T18:10:41.047Z,63.64
2022-08-24T18:13:27.428Z,63.96
2022-08-24T18:16:22.284Z,63.54
2022-08-24T18:19:09.570Z,63.89
2022-08-24T18:21:55.774Z,64.35
2022-08-24T18:24:42.367Z,63.98
2022-08-24T18:27:30.603Z,64.70
2022-08-24T18:30:30.773Z,64.46
2022-08-24T18:33:17.572Z,64.20
2022-08-24T18:36:03.390Z,63.69
2022-08-24T18:38:49.112Z,63.19
2022-08-24T18:41:39.406Z,62.98
2022-08-24T18:44:28.355Z,63.02
2022-08-24T18:47:17.216Z,62.54
2022-08-24T18:50:03.843Z,62.18
2022-08-24T18:52:49.242Z,62.12
2022-08-24T18:55:34.713Z,62.64
2022-08-24T18:58:20.975Z,63.04
2022-08-24T19:01:07.340Z,63.10
2022-08-24T19:03:53.606Z,63.74
2022-08-24T19:06:39.507Z,63.70
2022-08-24T19:09:25.051Z,64.02
2022-08-24T19:12:11.227Z,64.55
2022-08-24T19:14:59.406Z,64.86
2022-08-24T19:17:45.562Z,65.23
2022-08-24T19:20:33.042Z,65.61
2022-08-24T19:23:30.119Z,65.37
2022-08-24T19:26:15.790Z,65.73
2022-08-24T19:29:03.845Z,65.72
2022-08-24T19:31:51.757Z,65.93
2022-08-24T19:34:37.423Z,65.46
2022-08-24T19:37:23.770Z,64.88
2022-08-24T19:40:09.500Z,63.92
2022-08-24T19:42:56.509Z,64.24
2022-08-24T19:46:01.940Z,63.60
2022-08-24T19:48:47.659Z,62.87
2022-08-24T19:51:34.771Z,63.31
2022-08-24T19:54:20.899Z,63.82
2022-08-24T19:57:36.269Z,62.97
2022-08-24T20:00:26.624Z,62.02
2022-08-24T20:03:12.928Z,61.51
2022-08-24T20:05:59.105Z,60.81
2022-08-24T20:08:48.512Z,60.73
2022-08-24T20:11:34.695Z,61.35
2022-08-24T20:14:21.866Z,59.39
2022-08-24T20:17:07.851Z,60.01
2022-08-24T20:19:55.655Z,60.38
2022-08-24T20:22:42.019Z,60.00
2022-08-24T20:25:28.013Z,59.47
2022-08-24T20:28:34.760Z,59.63
2022-08-24T20:31:28.422Z,59.52
2022-08-24T20:34:15.385Z,59.32
2022-08-24T20:37:02.069Z,59.48
2022-08-24T20:39:48.402Z,59.15
2022-08-24T20:42:34.487Z,57.78
2022-08-24T20:45:21.589Z,56.46
2022-08-24T20:48:12.236Z,55.48
2022-08-24T20:50:59.964Z,55.95
2022-08-24T20:53:49.040Z,57.10
2022-08-24T20:56:38.040Z,57.75
2022-08-24T20:59:24.363Z,56.98
2022-08-24T21:02:10.748Z,58.56
2022-08-24T21:04:57.189Z,59.31
2022-08-24T21:07:49.480Z,60.16
2022-08-24T21:10:35.287Z,59.85
2022-08-24T21:13:21.967Z,59.99
2022-08-24T21:16:11.856Z,61.10
2022-08-24T21:18:57.372Z,60.76
2022-08-24T21:21:43.622Z,60.15
2022-08-24T21:24:29.298Z,59.87
2022-08-24T21:27:14.764Z,60.83
2022-08-24T21:30:00.364Z,60.77
2022-08-24T21:33:05.845Z,60.99
2022-08-24T21:35:53.896Z,61.41
2022-08-24T21:38:40.226Z,62.02
2022-08-24T21:41:31.466Z,61.94
2022-08-24T21:44:17.101Z,62.13
2022-08-24T21:47:03.717Z,62.53
2022-08-24T21:49:49.416Z,62.35
2022-08-24T21:52:35.336Z,63.27
2022-08-24T21:55:21.617Z,63.13
2022-08-24T21:58:08.023Z,63.42
2022-08-24T22:00:53.833Z,63.64
2022-08-24T22:03:44.785Z,63.22
2022-08-24T22:06:31.898Z,63.67
2022-08-24T22:09:17.660Z,64.15
2022-08-24T22:12:03.427Z,64.85
2022-08-24T22:14:49.108Z,65.50
2022-08-24T22:17:34.862Z,65.77
2022-08-24T22:20:22.324Z,65.72
2022-08-24T22:23:09.459Z,65.63
2022-08-24T22:25:55.037Z,65.43
2022-08-24T22:28:41.816Z,65.60
2022-08-24T22:31:30.634Z,65.92
2022-08-24T22:34:19.561Z,66.09
2022-08-24T22:37:06.282Z,65.90
2022-08-24T22:39:51.975Z,65.52
2022-08-24T22:42:38.057Z,65.43
2022-08-24T22:45:23.398Z,65.90
2022-08-24T22:48:08.892Z,66.42
2022-08-24T22:50:54.660Z,66.74
2022-08-24T22:53:41.328Z,67.07
2022-08-24T22:56:33.851Z,67.39
2022-08-24T22:59:24.440Z,67.00
2022-08-24T23:02:13.364Z,66.69
2022-08-24T23:04:58.717Z,66.51
2022-08-24T23:07:44.146Z,66.39
2022-08-24T23:10:29.625Z,66.11
2022-08-24T23:13:15.173Z,66.23
2022-08-24T23:16:08.963Z,66.26
2022-08-24T23:19:13.573Z,66.55
2022-08-24T23:21:58.867Z,66.56
2022-08-24T23:24:45.160Z,67.04
2022-08-24T23:27:33.056Z,67.29
2022-08-24T23:30:23.664Z,67.40
2022-08-24T23:33:09.307Z,67.76
2022-08-24T23:35:55.011Z,68.07
2022-08-24T23:38:42.833Z,68.17
2022-08-24T23:41:31.809Z,68.02
2022-08-24T23:44:21.862Z,67.71
2022-08-24T23:47:07.497Z,67.42
2022-08-24T23:49:52.717Z,67.29
2022-08-24T23:52:39.350Z,67.95
2022-08-24T23:55:25.537Z,68.02
2022-08-24T23:58:10.711Z,68.22
